UPDATE Mit 1. Juli wird auf eine neue Wetterseite umgestellt
Wer schon probieren möchte kann unter https://wetter.hildner.at gerne testen
Die Seite befindet sich noch im Aufbau

Es liegt ein Kommunikationsproblem . Gehen Sie direkt zur Website Meteoalarm : www.meteoalarm.eu und überprüfen Sie die Wetterwarnungen..


Rindlberg West Mehr Informationen Rindlberg West


Stuetzi - Rindlberg Ost Mehr Informationen Stuetzi - Rindlberg Ost


Regenradar Mehr Informationen rain snow radar


Sie finden meine Wetter-Infos auch auf:

Weather Underground

AWEKAS



METAR-Meldungen aus der Umgebung

   
LOWL - Linz
Aktualisierung: 27-06-2022 12:50
leicht bewölkt  
leicht bewölkt  
   Wind: OSO 11.1 km/h
Wind: OSO 11.1 km/h
Temperatur: 30°C
Hitzeindex: 32°C
Taupunkt: 20°C
Luftfeuchte: 55%
Luftdruck: 1014 hPa
Wolken: leicht bewölkt
Sichtbarkeit: Mehr als 10 km
Bewölkung: leicht bewölkt 6000 ft
LOWL 271050Z AUTO 12006KT 9999 FEW060 30/20 Q1014 NOSIG
LOWW - Vienna
Aktualisierung: 27-06-2022 13:20
Klar  
Klar  
   Wind: SSO 33.3 km/h
Wind: SSO 33.3 km/h
Temperatur: 32°C
Hitzeindex: 32°C
Taupunkt: 17°C
Luftfeuchte: 41%
Luftdruck: 1015 hPa
Sichtbarkeit: Mehr als 10 km
Bewölkung: Klar
LOWW 271120Z 16018KT CAVOK 32/17 Q1015 NOSIG
 

Script entwickelt von  Saratoga-weather.org Angepasst für das Template von  Weerstation Leuven